Time;durP1;ratioP1;P1;durP2;ratioP2;P2;SDS_P1;SDS_P2;PMS_P1;PMS_P2;Temp;Humidity;BMP_temperature;BMP_pressure;BME280_temperature;BME280_humidity;BME280_pressure;Samples;Min_cycle;Max_cycle;Signal;HPM_P1;HPM_P2
2022/07/18 00:00:17;;;;;;;1.73;0.90;;;22.30;39.30;;;;;;5042190;28;20493;-52
2022/07/18 00:02:44;;;;;;;2.13;1.05;;;22.20;39.30;;;;;;5043516;28;20056;-53
2022/07/18 00:05:11;;;;;;;2.15;1.02;;;22.20;39.30;;;;;;5043259;28;20512;-54
2022/07/18 00:07:39;;;;;;;2.08;1.00;;;22.20;39.40;;;;;;5042266;28;20064;-51
2022/07/18 00:10:07;;;;;;;3.90;1.25;;;22.10;39.40;;;;;;5042860;28;20072;-53
2022/07/18 00:12:36;;;;;;;2.05;1.05;;;22.10;39.50;;;;;;5042715;28;20080;-53
2022/07/18 00:15:04;;;;;;;1.85;0.98;;;22.00;39.50;;;;;;5042115;28;20064;-56
2022/07/18 00:17:31;;;;;;;2.38;0.98;;;22.00;39.60;;;;;;5037449;28;20402;-57
2022/07/18 00:19:59;;;;;;;3.78;1.15;;;22.00;39.60;;;;;;5042902;28;20053;-54
2022/07/18 00:22:26;;;;;;;4.10;1.38;;;22.00;39.70;;;;;;5044063;28;20065;-52
2022/07/18 00:24:54;;;;;;;2.95;1.05;;;21.90;39.70;;;;;;5042208;28;20414;-53
2022/07/18 00:27:21;;;;;;;4.20;1.10;;;21.90;39.80;;;;;;5040900;28;20053;-51
2022/07/18 00:29:50;;;;;;;5.80;1.20;;;21.80;39.70;;;;;;5043499;28;20493;-51
2022/07/18 00:32:17;;;;;;;2.13;1.10;;;21.80;39.70;;;;;;5040609;28;20147;-55
2022/07/18 00:34:45;;;;;;;1.45;0.88;;;21.80;39.70;;;;;;5042967;28;20416;-54
2022/07/18 00:37:13;;;;;;;1.50;1.08;;;21.70;39.80;;;;;;5040065;28;20436;-51
2022/07/18 00:39:40;;;;;;;1.90;1.10;;;21.70;39.80;;;;;;5042205;28;20061;-54
2022/07/18 00:42:08;;;;;;;2.55;1.10;;;21.60;39.80;;;;;;5043331;28;20511;-49
2022/07/18 00:44:36;;;;;;;1.48;1.08;;;21.60;40.00;;;;;;5043077;28;20056;-49
2022/07/18 00:47:05;;;;;;;2.38;1.08;;;21.60;40.00;;;;;;5037427;28;20045;-54
2022/07/18 00:49:32;;;;;;;3.17;1.35;;;21.60;40.10;;;;;;5041702;28;20057;-49
2022/07/18 00:52:00;;;;;;;2.25;1.00;;;21.50;40.20;;;;;;5041895;28;20064;-54
2022/07/18 00:54:28;;;;;;;2.22;0.93;;;21.50;40.20;;;;;;5042668;28;20049;-53
2022/07/18 00:56:55;;;;;;;3.35;1.27;;;21.40;40.20;;;;;;5038767;28;20473;-52
2022/07/18 01:01:42;;;;;;;2.97;0.88;;;21.40;40.40;;;;;;5037697;28;20053;-52
2022/07/18 01:02:11;;;;;;;1.55;1.10;;;21.40;40.40;;;;;;5042386;28;20516;-54
2022/07/18 01:04:38;;;;;;;4.53;1.40;;;21.40;40.60;;;;;;5041860;28;20057;-53
2022/07/18 01:07:06;;;;;;;2.00;1.00;;;21.30;40.70;;;;;;5033831;28;20665;-50
2022/07/18 01:09:33;;;;;;;2.20;1.00;;;21.30;40.80;;;;;;5037469;28;20064;-50
2022/07/18 01:12:01;;;;;;;3.65;1.45;;;21.20;40.80;;;;;;5042760;28;20063;-53
2022/07/18 01:14:29;;;;;;;4.43;0.90;;;21.20;41.00;;;;;;5041448;28;20484;-52
2022/07/18 01:16:56;;;;;;;2.65;1.55;;;21.10;41.00;;;;;;5035432;28;20052;-53
2022/07/18 01:19:25;;;;;;;3.05;0.80;;;21.20;41.20;;;;;;5041549;28;20068;-53
2022/07/18 01:21:54;;;;;;;3.28;1.27;;;21.10;41.00;;;;;;5043154;28;20056;-49
2022/07/18 01:24:22;;;;;;;2.72;1.10;;;21.00;41.00;;;;;;5038267;28;20057;-54
2022/07/18 01:26:49;;;;;;;2.15;1.20;;;21.10;41.20;;;;;;5040213;28;20049;-55
2022/07/18 01:29:16;;;;;;;2.97;1.23;;;21.00;41.20;;;;;;5042713;28;20409;-52
2022/07/18 01:31:44;;;;;;;3.42;0.98;;;21.00;41.40;;;;;;5041033;28;20063;-50
2022/07/18 01:34:11;;;;;;;1.98;1.00;;;21.00;41.50;;;;;;5041046;28;20049;-51
2022/07/18 01:36:39;;;;;;;2.30;0.82;;;20.90;41.60;;;;;;5036296;28;20055;-51
2022/07/18 01:39:09;;;;;;;4.75;1.00;;;20.90;41.60;;;;;;5035584;28;20061;-50
2022/07/18 01:41:36;;;;;;;1.60;0.93;;;20.90;41.60;;;;;;5041672;28;20881;-54
2022/07/18 01:44:04;;;;;;;1.38;0.88;;;20.90;41.70;;;;;;5041286;28;20413;-56
2022/07/18 01:46:32;;;;;;;3.28;1.30;;;20.80;41.70;;;;;;5033884;28;20064;-51
2022/07/18 01:48:59;;;;;;;2.67;0.95;;;20.80;41.70;;;;;;5036827;28;20049;-51
2022/07/18 01:51:26;;;;;;;1.90;1.13;;;20.70;41.70;;;;;;5040740;28;21403;-51
2022/07/18 01:53:59;;;;;;;4.05;1.20;;;20.80;41.90;;;;;;5040356;28;20497;-50
2022/07/18 01:56:27;;;;;;;3.33;0.95;;;20.70;42.00;;;;;;5040240;28;20049;-49
2022/07/18 01:58:56;;;;;;;1.42;0.90;;;20.70;42.10;;;;;;5038615;28;20052;-50
2022/07/18 02:01:23;;;;;;;3.50;0.93;;;20.70;42.10;;;;;;5036997;28;20048;-52
2022/07/18 02:03:51;;;;;;;3.25;1.20;;;20.70;42.20;;;;;;5041747;28;20053;-52
2022/07/18 02:06:18;;;;;;;6.40;2.15;;;20.60;42.20;;;;;;5041218;28;20111;-51
2022/07/18 02:08:46;;;;;;;2.63;1.00;;;20.70;42.40;;;;;;5040590;28;20060;-52
2022/07/18 02:11:13;;;;;;;3.78;0.98;;;20.60;42.40;;;;;;5042907;28;20265;-53
2022/07/18 02:13:42;;;;;;;3.58;1.00;;;20.60;42.40;;;;;;5037675;28;20063;-51
2022/07/18 02:16:12;;;;;;;1.90;1.00;;;20.60;42.50;;;;;;5037631;28;20052;-51
2022/07/18 02:18:40;;;;;;;2.22;1.15;;;20.60;42.60;;;;;;5040442;28;20056;-53
2022/07/18 02:21:08;;;;;;;2.63;1.20;;;20.50;42.50;;;;;;5041981;28;20056;-53
2022/07/18 02:23:36;;;;;;;2.78;0.82;;;20.50;42.60;;;;;;5041558;28;20057;-50
2022/07/18 02:26:05;;;;;;;2.38;1.10;;;20.50;42.70;;;;;;5037043;28;20056;-52
2022/07/18 02:28:33;;;;;;;4.05;1.20;;;20.50;42.80;;;;;;5040178;28;20059;-53
2022/07/18 02:31:02;;;;;;;2.20;1.00;;;20.40;42.80;;;;;;5038405;28;20053;-58
2022/07/18 02:33:29;;;;;;;2.80;1.05;;;20.40;42.80;;;;;;5040490;28;20069;-49
2022/07/18 02:35:57;;;;;;;5.97;1.35;;;20.40;42.80;;;;;;5037630;28;20056;-52
2022/07/18 02:38:24;;;;;;;3.15;1.17;;;20.40;42.90;;;;;;5041572;28;20497;-49
2022/07/18 02:40:51;;;;;;;1.40;0.80;;;20.40;42.90;;;;;;5041326;28;20068;-52
2022/07/18 02:43:19;;;;;;;2.03;1.08;;;20.30;42.90;;;;;;5033749;28;20576;-51
2022/07/18 02:45:46;;;;;;;3.10;1.00;;;20.30;42.90;;;;;;5037772;28;20049;-53
2022/07/18 02:48:15;;;;;;;3.20;1.30;;;20.30;43.00;;;;;;5041492;28;20048;-55
2022/07/18 02:50:42;;;;;;;3.85;1.63;;;20.30;43.10;;;;;;5040537;28;20060;-50
2022/07/18 02:53:10;;;;;;;4.15;1.20;;;20.30;43.00;;;;;;5040443;28;20641;-57
2022/07/18 02:55:37;;;;;;;2.03;1.05;;;20.20;42.90;;;;;;5037257;28;20061;-53
2022/07/18 02:58:05;;;;;;;1.35;1.02;;;20.20;43.00;;;;;;5035257;28;20045;-54
2022/07/18 03:00:32;;;;;;;2.33;1.13;;;20.20;43.10;;;;;;5037577;28;20056;-54
2022/07/18 03:03:00;;;;;;;5.68;1.10;;;20.20;43.00;;;;;;5038790;28;20068;-55
2022/07/18 03:05:29;;;;;;;2.10;1.10;;;20.10;42.90;;;;;;5037473;28;20456;-53
2022/07/18 03:07:56;;;;;;;4.25;1.00;;;20.10;43.10;;;;;;5043519;28;20059;-54
2022/07/18 03:10:24;;;;;;;2.50;1.13;;;20.10;43.10;;;;;;5042968;28;20520;-56
2022/07/18 03:12:52;;;;;;;3.80;1.30;;;20.00;43.10;;;;;;5029649;28;20052;-51
2022/07/18 03:15:19;;;;;;;2.05;1.08;;;20.00;43.20;;;;;;5040920;28;20055;-51
2022/07/18 03:17:46;;;;;;;3.20;1.08;;;20.00;43.20;;;;;;5028923;28;20079;-52
2022/07/18 03:20:14;;;;;;;2.25;1.33;;;20.00;43.20;;;;;;5042580;28;20908;-50
2022/07/18 03:22:43;;;;;;;5.57;1.38;;;19.90;43.10;;;;;;5042994;28;20053;-50
2022/07/18 03:25:10;;;;;;;3.47;1.25;;;19.90;43.30;;;;;;5043741;28;20055;-52
2022/07/18 03:27:38;;;;;;;3.92;1.20;;;19.90;43.30;;;;;;5039115;28;20064;-54
2022/07/18 03:30:07;;;;;;;3.97;1.50;;;19.90;43.30;;;;;;5042341;28;20064;-54
2022/07/18 03:32:34;;;;;;;2.63;1.17;;;19.80;43.30;;;;;;5040304;28;20135;-54
2022/07/18 03:35:01;;;;;;;1.90;1.10;;;19.80;43.40;;;;;;5043296;28;20479;-52
2022/07/18 03:37:29;;;;;;;2.67;1.10;;;19.80;43.60;;;;;;5034742;28;20053;-52
2022/07/18 03:39:58;;;;;;;4.20;1.10;;;19.80;43.60;;;;;;5041764;28;20057;-53
2022/07/18 03:42:25;;;;;;;2.65;1.10;;;19.70;43.60;;;;;;5040253;28;20049;-55
2022/07/18 03:44:53;;;;;;;1.80;1.10;;;19.70;43.70;;;;;;5042497;28;20053;-52
2022/07/18 03:47:20;;;;;;;3.17;1.10;;;19.70;43.70;;;;;;5036661;28;20057;-56
2022/07/18 03:49:47;;;;;;;2.33;1.08;;;19.70;43.80;;;;;;5038045;28;20484;-51
2022/07/18 03:52:15;;;;;;;4.25;1.63;;;19.70;43.90;;;;;;5040535;28;20056;-51
2022/07/18 03:54:42;;;;;;;1.10;0.95;;;19.70;43.90;;;;;;5043845;28;20067;-52
2022/07/18 03:57:11;;;;;;;3.83;1.20;;;19.70;43.90;;;;;;5037612;28;20057;-51
2022/07/18 03:59:39;;;;;;;2.40;1.27;;;19.60;43.90;;;;;;5038857;28;20059;-52
2022/07/18 04:02:06;;;;;;;3.10;1.10;;;19.60;43.80;;;;;;5040136;28;20065;-50
2022/07/18 04:04:34;;;;;;;3.08;1.65;;;19.60;43.90;;;;;;5038730;28;20056;-49
2022/07/18 04:07:02;;;;;;;3.38;1.27;;;19.60;44.00;;;;;;5037775;28;20493;-49
2022/07/18 04:09:29;;;;;;;3.17;0.90;;;19.60;44.00;;;;;;5042252;28;20059;-52
2022/07/18 04:11:57;;;;;;;2.70;1.10;;;19.60;44.10;;;;;;5038690;28;20059;-54
2022/07/18 04:14:27;;;;;;;2.60;0.98;;;19.60;44.00;;;;;;5038986;28;20068;-56
2022/07/18 04:16:55;;;;;;;2.15;1.05;;;19.60;44.10;;;;;;5029542;28;20049;-49
2022/07/18 04:19:25;;;;;;;1.83;0.80;;;19.50;44.10;;;;;;5038110;28;20057;-50
2022/07/18 04:21:52;;;;;;;4.63;1.30;;;19.50;44.20;;;;;;5041315;28;20060;-53
2022/07/18 04:24:19;;;;;;;1.13;0.80;;;19.60;44.30;;;;;;5036987;28;20449;-51
2022/07/18 04:26:47;;;;;;;2.53;1.20;;;19.50;44.20;;;;;;5040015;28;20083;-56
2022/07/18 04:29:14;;;;;;;2.08;0.88;;;19.50;44.30;;;;;;5041877;28;20049;-52
2022/07/18 04:31:43;;;;;;;1.98;0.88;;;19.50;44.20;;;;;;5036400;28;20048;-52
2022/07/18 04:34:11;;;;;;;3.38;1.10;;;19.60;44.40;;;;;;5039020;28;20068;-55
2022/07/18 04:36:38;;;;;;;2.35;1.27;;;19.50;44.40;;;;;;5035859;28;20059;-52
2022/07/18 04:39:06;;;;;;;1.10;0.77;;;19.50;44.40;;;;;;5040289;28;20507;-53
2022/07/18 04:41:33;;;;;;;1.42;0.88;;;19.50;44.40;;;;;;5034052;28;20053;-51
2022/07/18 04:44:01;;;;;;;2.42;1.00;;;19.50;44.50;;;;;;5040864;28;20500;-55
2022/07/18 04:46:29;;;;;;;2.40;1.10;;;19.50;44.50;;;;;;5036386;28;20067;-49
2022/07/18 04:48:58;;;;;;;3.28;1.20;;;19.50;44.70;;;;;;5041201;28;20048;-56
2022/07/18 04:51:25;;;;;;;2.80;1.10;;;19.50;44.70;;;;;;5038143;28;20053;-50
2022/07/18 04:53:54;;;;;;;2.35;1.10;;;19.50;44.80;;;;;;5041891;28;20424;-53
2022/07/18 04:56:21;;;;;;;2.97;1.10;;;19.50;45.00;;;;;;5035172;28;20409;-53
2022/07/18 04:58:49;;;;;;;1.77;0.88;;;19.50;45.00;;;;;;5041277;28;20493;-49
2022/07/18 05:01:16;;;;;;;3.25;1.33;;;19.50;45.00;;;;;;5041189;28;20045;-55
2022/07/18 05:03:44;;;;;;;4.07;1.27;;;19.60;45.10;;;;;;5037760;28;20057;-54
2022/07/18 05:06:13;;;;;;;1.83;1.00;;;19.60;45.10;;;;;;5035205;28;20064;-50
2022/07/18 05:08:40;;;;;;;1.73;1.00;;;19.60;45.10;;;;;;5038788;28;20061;-51
2022/07/18 05:11:08;;;;;;;2.22;1.10;;;19.60;45.10;;;;;;5039056;28;20052;-54
2022/07/18 05:13:35;;;;;;;6.30;1.60;;;19.60;45.70;;;;;;5041067;28;20060;-51
2022/07/18 05:16:03;;;;;;;2.50;1.30;;;19.70;45.20;;;;;;5036479;28;20583;-55
2022/07/18 05:18:30;;;;;;;1.92;1.13;;;19.60;45.10;;;;;;5039134;28;20044;-53
2022/07/18 05:20:58;;;;;;;4.47;1.27;;;19.70;45.10;;;;;;5039497;28;20045;-52
2022/07/18 05:23:27;;;;;;;2.45;0.93;;;19.70;45.30;;;;;;5039438;28;20049;-50
2022/07/18 05:25:54;;;;;;;3.05;0.90;;;19.70;45.30;;;;;;5039711;28;20053;-53
2022/07/18 05:28:23;;;;;;;2.22;1.13;;;19.70;45.40;;;;;;5040284;28;20488;-51
2022/07/18 05:30:50;;;;;;;3.85;1.23;;;19.80;45.60;;;;;;5039386;28;20052;-51
2022/07/18 05:33:17;;;;;;;1.88;0.85;;;19.80;45.50;;;;;;5037864;28;20055;-54
2022/07/18 05:35:45;;;;;;;2.97;1.15;;;19.80;45.50;;;;;;5039266;28;20057;-55
2022/07/18 05:38:13;;;;;;;3.90;2.08;;;19.90;45.50;;;;;;5040126;28;20053;-53
2022/07/18 05:40:41;;;;;;;4.85;2.00;;;19.90;45.50;;;;;;5040418;28;20128;-53
2022/07/18 05:43:09;;;;;;;7.72;1.85;;;19.90;45.50;;;;;;5037912;28;20053;-55
2022/07/18 05:45:37;;;;;;;2.38;1.10;;;20.00;45.40;;;;;;5034867;28;20057;-57
2022/07/18 05:48:07;;;;;;;2.78;1.17;;;20.00;45.30;;;;;;5041386;28;20045;-55
2022/07/18 05:50:34;;;;;;;2.10;1.20;;;20.10;45.40;;;;;;5039290;28;20436;-51
2022/07/18 05:53:02;;;;;;;2.30;1.10;;;20.10;45.30;;;;;;5038020;28;20060;-54
2022/07/18 05:55:30;;;;;;;4.68;1.05;;;20.20;45.60;;;;;;5037946;28;20057;-49
2022/07/18 05:57:58;;;;;;;4.90;1.23;;;20.30;45.60;;;;;;5038249;28;20555;-55
2022/07/18 06:00:26;;;;;;;3.33;1.20;;;20.30;45.90;;;;;;5039901;28;20063;-52
2022/07/18 06:02:54;;;;;;;2.53;1.25;;;20.40;45.80;;;;;;5034952;28;20061;-51
2022/07/18 06:05:21;;;;;;;4.90;1.10;;;20.50;45.70;;;;;;5036238;28;20052;-56
2022/07/18 06:07:49;;;;;;;2.35;1.10;;;20.50;45.60;;;;;;5039460;28;20059;-51
2022/07/18 06:10:16;;;;;;;4.57;1.23;;;20.60;45.50;;;;;;5039489;28;20496;-51
2022/07/18 06:12:44;;;;;;;3.80;1.05;;;20.70;45.60;;;;;;5039041;28;20045;-54
2022/07/18 06:15:15;;;;;;;3.83;0.85;;;20.70;45.20;;;;;;5039158;28;20061;-56
2022/07/18 06:17:43;;;;;;;1.83;0.90;;;20.80;45.20;;;;;;5034731;28;20072;-50
2022/07/18 06:20:11;;;;;;;4.05;1.38;;;20.90;45.10;;;;;;5041272;28;20497;-53
2022/07/18 06:22:39;;;;;;;1.95;0.90;;;21.00;45.00;;;;;;5039546;28;20053;-53
2022/07/18 06:25:08;;;;;;;3.08;1.30;;;21.10;44.90;;;;;;5039859;28;20052;-54
2022/07/18 06:27:36;;;;;;;4.00;1.27;;;21.20;44.60;;;;;;5035905;28;20393;-53
2022/07/18 06:30:04;;;;;;;3.75;1.67;;;21.30;44.50;;;;;;5039443;28;20072;-58
2022/07/18 06:32:33;;;;;;;2.95;1.20;;;21.30;44.10;;;;;;5034175;28;20432;-56
2022/07/18 06:35:01;;;;;;;2.70;1.02;;;21.40;43.90;;;;;;5039902;28;20053;-54
2022/07/18 06:37:29;;;;;;;2.88;1.17;;;21.50;44.10;;;;;;5036673;28;20473;-55
2022/07/18 06:39:56;;;;;;;3.30;1.05;;;21.60;44.10;;;;;;5040390;28;20060;-54
2022/07/18 06:42:23;;;;;;;5.63;1.10;;;21.60;44.10;;;;;;5041847;28;20053;-58
2022/07/18 06:44:51;;;;;;;2.35;1.45;;;21.70;43.90;;;;;;5044644;28;20057;-53
2022/07/18 06:47:18;;;;;;;8.45;1.25;;;21.80;43.70;;;;;;5042149;28;20056;-55
2022/07/18 06:49:47;;;;;;;3.80;1.00;;;21.90;43.90;;;;;;5042651;28;20056;-55
2022/07/18 06:52:15;;;;;;;6.35;1.58;;;21.90;43.60;;;;;;5043764;28;20057;-55
2022/07/18 06:54:43;;;;;;;3.47;1.38;;;22.00;43.20;;;;;;5041700;28;20057;-53
2022/07/18 06:57:10;;;;;;;3.08;1.10;;;22.00;43.40;;;;;;5036626;28;20484;-56
2022/07/18 06:59:38;;;;;;;1.80;0.93;;;22.20;43.40;;;;;;5043123;28;20048;-53
2022/07/18 07:02:05;;;;;;;2.35;0.95;;;22.20;43.10;;;;;;5044454;28;20508;-54
2022/07/18 07:04:33;;;;;;;4.15;0.95;;;22.30;43.00;;;;;;5038009;28;20063;-52
2022/07/18 07:07:02;;;;;;;7.07;1.08;;;22.40;42.90;;;;;;5040404;28;20056;-55
2022/07/18 07:09:29;;;;;;;2.55;0.80;;;22.50;42.60;;;;;;5039692;28;20053;-50
2022/07/18 07:11:57;;;;;;;2.10;1.08;;;22.60;42.40;;;;;;5040688;28;20382;-50
2022/07/18 07:14:24;;;;;;;3.47;1.40;;;22.60;42.20;;;;;;5038224;28;20063;-51
2022/07/18 07:16:52;;;;;;;6.57;1.17;;;22.70;42.20;;;;;;5039623;28;20378;-51
2022/07/18 07:19:19;;;;;;;2.53;1.02;;;22.80;42.30;;;;;;5042324;28;20060;-57
2022/07/18 07:21:47;;;;;;;4.05;1.08;;;22.80;42.00;;;;;;5043293;28;20060;-59
2022/07/18 07:24:16;;;;;;;6.47;1.50;;;22.90;41.90;;;;;;5040928;28;20049;-53
2022/07/18 07:26:43;;;;;;;3.45;0.98;;;23.00;42.10;;;;;;5042341;28;20059;-53
2022/07/18 07:29:11;;;;;;;3.08;1.15;;;23.10;42.00;;;;;;5042075;28;20048;-51
2022/07/18 07:31:38;;;;;;;4.05;1.10;;;23.20;42.00;;;;;;5041707;28;20072;-52
2022/07/18 07:34:06;;;;;;;3.25;0.90;;;23.20;41.80;;;;;;5042876;28;20526;-55
2022/07/18 07:36:33;;;;;;;2.85;0.90;;;23.40;41.10;;;;;;5035418;28;20394;-53
2022/07/18 07:39:01;;;;;;;1.70;1.10;;;23.40;40.70;;;;;;5038246;28;20227;-52
2022/07/18 07:41:30;;;;;;;3.65;1.17;;;23.50;40.50;;;;;;5042237;28;20071;-51
2022/07/18 07:43:57;;;;;;;2.83;1.10;;;23.60;39.90;;;;;;5036265;28;20056;-60
2022/07/18 07:46:25;;;;;;;4.32;1.33;;;23.60;39.80;;;;;;5033700;28;20064;-51
2022/07/18 07:48:52;;;;;;;1.10;0.90;;;23.70;39.50;;;;;;5040270;28;20053;-57
2022/07/18 07:51:20;;;;;;;5.13;1.60;;;23.80;39.30;;;;;;5038450;28;20120;-51
2022/07/18 07:53:47;;;;;;;2.58;0.82;;;23.90;39.70;;;;;;5043574;28;20485;-58
2022/07/18 07:56:18;;;;;;;7.32;2.30;;;24.00;39.30;;;;;;5040044;28;20057;-57
2022/07/18 07:58:47;;;;;;;3.78;1.65;;;24.10;39.00;;;;;;5042776;28;20049;-58
2022/07/18 08:01:17;;;;;;;5.43;1.20;;;24.20;39.20;;;;;;5043074;28;20055;-53
2022/07/18 08:03:48;;;;;;;9.80;4.07;;;24.30;38.90;;;;;;5040547;28;20408;-54
2022/07/18 08:06:15;;;;;;;1.98;1.20;;;24.40;38.80;;;;;;5036223;28;20052;-52
2022/07/18 08:08:43;;;;;;;3.22;1.13;;;24.50;38.50;;;;;;5039249;28;20390;-50
2022/07/18 08:11:10;;;;;;;3.38;1.40;;;24.50;37.90;;;;;;5039395;28;20476;-55
2022/07/18 08:13:38;;;;;;;2.70;1.02;;;24.70;38.10;;;;;;5041930;28;20511;-55
2022/07/18 08:16:07;;;;;;;1.73;0.95;;;24.80;38.00;;;;;;5034963;28;20049;-53
2022/07/18 08:18:34;;;;;;;3.05;0.80;;;24.90;37.90;;;;;;5035732;28;20595;-56
2022/07/18 08:21:02;;;;;;;2.88;0.70;;;25.00;37.70;;;;;;5036581;28;20049;-51
2022/07/18 08:23:29;;;;;;;2.53;1.10;;;25.10;37.70;;;;;;5037091;28;20072;-54
2022/07/18 08:25:56;;;;;;;2.60;1.33;;;25.20;37.80;;;;;;5034299;28;20051;-52
2022/07/18 08:28:24;;;;;;;2.65;1.00;;;25.30;37.40;;;;;;5034363;28;20057;-51
2022/07/18 08:30:52;;;;;;;1.95;1.10;;;25.40;36.90;;;;;;5039938;28;20041;-54
2022/07/18 08:33:20;;;;;;;2.50;1.10;;;25.50;36.80;;;;;;5039531;28;20068;-53
2022/07/18 08:35:49;;;;;;;2.00;0.90;;;25.60;36.50;;;;;;5036421;28;20049;-52
2022/07/18 08:38:16;;;;;;;2.63;0.98;;;25.70;36.50;;;;;;5037642;28;20049;-51
2022/07/18 08:40:47;;;;;;;2.40;1.08;;;25.80;36.10;;;;;;5034070;28;20421;-57
2022/07/18 08:43:16;;;;;;;1.65;0.85;;;25.90;35.90;;;;;;5038397;28;20068;-60
2022/07/18 08:45:44;;;;;;;2.15;1.00;;;26.00;35.90;;;;;;5032948;28;20057;-58
2022/07/18 08:48:13;;;;;;;2.90;1.13;;;26.10;35.50;;;;;;5036583;28;20061;-57
2022/07/18 08:50:45;;;;;;;6.32;1.20;;;26.20;35.40;;;;;;5035719;28;20053;-53
2022/07/18 08:53:13;;;;;;;2.85;1.00;;;26.20;34.70;;;;;;5032094;28;20053;-60
2022/07/18 08:55:41;;;;;;;4.88;0.98;;;26.30;34.60;;;;;;5036791;28;20059;-56
2022/07/18 08:58:09;;;;;;;1.98;0.88;;;26.40;34.60;;;;;;5034442;28;20123;-54
2022/07/18 09:00:37;;;;;;;3.40;1.00;;;26.50;34.50;;;;;;5039903;28;20057;-59
2022/07/18 09:03:05;;;;;;;1.17;0.85;;;26.60;34.50;;;;;;5034265;28;20412;-63
2022/07/18 09:05:34;;;;;;;2.50;0.90;;;26.70;34.50;;;;;;5032878;28;20521;-57
2022/07/18 09:08:17;;;;;;;1.92;0.80;;;26.70;34.20;;;;;;5035722;28;20064;-54
2022/07/18 09:10:56;;;;;;;1.60;0.90;;;26.80;34.20;;;;;;5040532;28;20049;-60
2022/07/18 09:13:36;;;;;;;2.42;1.10;;;26.90;33.40;;;;;;5039738;28;20052;-53
2022/07/18 09:16:06;;;;;;;1.98;1.20;;;27.00;33.60;;;;;;5036339;28;20741;-52
2022/07/18 09:18:35;;;;;;;1.90;0.88;;;27.10;33.70;;;;;;5036767;28;20548;-53
2022/07/18 09:21:04;;;;;;;1.85;0.82;;;27.20;34.30;;;;;;5036122;28;20049;-50
2022/07/18 09:23:35;;;;;;;3.67;1.13;;;27.30;33.60;;;;;;5032226;28;20053;-58
2022/07/18 09:26:04;;;;;;;3.15;0.88;;;27.30;33.20;;;;;;5036053;28;20048;-55
2022/07/18 09:28:49;;;;;;;1.55;0.90;;;27.40;32.90;;;;;;5035989;28;20064;-59
2022/07/18 09:31:20;;;;;;;1.83;0.85;;;27.50;32.10;;;;;;5035860;28;20053;-58
2022/07/18 09:33:54;;;;;;;2.38;0.95;;;27.60;32.10;;;;;;5031856;28;20053;-58
2022/07/18 09:40:14;;;;;;;2.58;1.20;;;27.70;32.70;;;;;;5053424;28;19920;-50
2022/07/18 09:42:41;;;;;;;2.28;1.08;;;27.80;31.90;;;;;;5041360;28;20053;-54
2022/07/18 09:45:09;;;;;;;3.50;1.10;;;27.90;31.60;;;;;;5035844;28;20057;-52
2022/07/18 09:47:51;;;;;;;3.42;1.17;;;28.00;31.40;;;;;;5038398;28;20052;-52
2022/07/18 09:50:32;;;;;;;5.53;1.23;;;28.10;31.00;;;;;;5038805;28;20094;-57
2022/07/18 09:53:03;;;;;;;2.65;1.05;;;28.20;31.40;;;;;;5042447;28;20063;-52
2022/07/18 09:55:32;;;;;;;2.30;0.93;;;28.30;31.10;;;;;;5039226;28;20053;-55
2022/07/18 09:58:02;;;;;;;2.53;1.17;;;28.30;30.80;;;;;;5037538;28;20064;-55
2022/07/18 10:00:37;;;;;;;2.38;1.00;;;28.40;30.40;;;;;;5037345;28;20049;-56
2022/07/18 10:03:15;;;;;;;3.25;1.20;;;28.50;29.80;;;;;;5037861;28;20049;-56
2022/07/18 10:05:46;;;;;;;3.28;1.00;;;28.60;29.70;;;;;;5037952;28;21475;-54
2022/07/18 10:08:15;;;;;;;2.05;1.10;;;28.60;29.90;;;;;;5038799;28;20059;-55
2022/07/18 10:10:45;;;;;;;1.45;1.00;;;28.70;29.80;;;;;;5038201;28;20053;-53
2022/07/18 10:13:14;;;;;;;2.13;0.80;;;28.80;29.80;;;;;;5035084;28;20053;-53
2022/07/18 10:15:43;;;;;;;4.90;1.02;;;28.80;29.20;;;;;;5032605;28;20053;-59
2022/07/18 10:18:13;;;;;;;1.98;1.00;;;28.90;29.70;;;;;;5034144;28;20053;-63
2022/07/18 10:20:43;;;;;;;2.33;1.00;;;29.00;29.10;;;;;;5033063;28;20606;-65
2022/07/18 10:23:16;;;;;;;3.28;1.00;;;29.00;29.20;;;;;;5042098;28;20064;-62
2022/07/18 10:26:04;;;;;;;1.70;1.00;;;29.10;28.80;;;;;;5045435;28;20607;-58
2022/07/18 10:28:32;;;;;;;1.67;0.85;;;29.10;28.60;;;;;;5045277;28;20475;-60
2022/07/18 10:31:14;;;;;;;4.10;0.93;;;29.20;28.70;;;;;;5045544;28;20485;-62
2022/07/18 10:33:45;;;;;;;3.40;1.02;;;29.20;28.20;;;;;;5045489;28;20057;-65
2022/07/18 10:36:15;;;;;;;2.10;0.90;;;29.20;28.30;;;;;;5045900;28;20048;-58
2022/07/18 10:39:05;;;;;;;1.85;1.00;;;29.20;28.30;;;;;;5046334;28;20060;-64
2022/07/18 10:41:57;;;;;;;3.97;1.00;;;29.30;28.50;;;;;;5046265;28;20056;-56
2022/07/18 10:44:35;;;;;;;5.20;0.90;;;29.30;28.30;;;;;;5043454;28;20080;-60
2022/07/18 10:47:06;;;;;;;2.88;1.10;;;29.30;28.10;;;;;;5043917;28;20049;-62
2022/07/18 10:50:16;;;;;;;2.10;1.00;;;29.40;28.20;;;;;;5045146;28;20079;-63
2022/07/18 10:53:00;;;;;;;2.17;1.13;;;29.40;28.20;;;;;;5030197;28;20064;-63
2022/07/18 10:55:35;;;;;;;2.53;1.30;;;29.40;28.20;;;;;;5045468;28;20424;-59
2022/07/18 10:58:24;;;;;;;2.63;0.80;;;29.50;28.40;;;;;;5038100;28;20045;-64
2022/07/18 11:00:55;;;;;;;2.35;1.10;;;29.50;28.00;;;;;;5042906;28;20481;-56
2022/07/18 11:03:28;;;;;;;2.55;0.85;;;29.50;27.80;;;;;;5045026;28;20057;-58
2022/07/18 11:05:57;;;;;;;3.47;1.20;;;29.60;27.80;;;;;;5045333;28;20056;-57
2022/07/18 11:08:28;;;;;;;2.83;1.23;;;29.60;27.90;;;;;;5045503;28;20059;-62
2022/07/18 11:11:14;;;;;;;2.67;1.13;;;29.70;27.70;;;;;;5045163;28;20057;-62
2022/07/18 11:13:49;;;;;;;4.10;1.27;;;29.80;27.30;;;;;;5044268;28;20059;-58
2022/07/18 11:16:19;;;;;;;2.63;1.08;;;29.80;27.50;;;;;;5044023;28;20063;-62
2022/07/18 11:19:19;;;;;;;2.00;1.10;;;29.90;27.80;;;;;;5044194;28;20048;-67
2022/07/18 11:21:47;;;;;;;2.50;1.20;;;29.90;27.30;;;;;;5045408;28;20045;-60
2022/07/18 11:24:15;;;;;;;2.35;1.08;;;30.00;27.50;;;;;;5044961;28;20053;-57
2022/07/18 11:26:47;;;;;;;2.00;1.20;;;30.00;27.70;;;;;;5041894;28;20418;-55
2022/07/18 11:29:18;;;;;;;3.55;1.17;;;30.00;27.60;;;;;;5041712;28;20049;-68
2022/07/18 11:31:47;;;;;;;3.47;1.30;;;30.10;27.40;;;;;;5044823;28;20056;-62
2022/07/18 11:34:15;;;;;;;3.70;1.30;;;30.10;27.20;;;;;;5036061;28;20528;-60
2022/07/18 11:36:46;;;;;;;2.90;1.17;;;30.20;27.10;;;;;;5034900;28;20057;-60
2022/07/18 11:39:15;;;;;;;2.17;1.20;;;30.20;26.70;;;;;;5033863;28;20065;-61
2022/07/18 11:41:43;;;;;;;1.63;1.10;;;30.30;26.70;;;;;;5029638;28;20060;-63
2022/07/18 11:44:26;;;;;;;2.50;1.42;;;30.30;26.90;;;;;;5033062;28;20057;-65
2022/07/18 11:47:03;;;;;;;2.00;1.40;;;30.40;26.70;;;;;;5030063;28;20048;-64
2022/07/18 11:49:31;;;;;;;3.63;1.20;;;30.50;26.70;;;;;;5040129;28;21590;-62
2022/07/18 11:51:58;;;;;;;2.13;1.00;;;30.50;26.80;;;;;;5034053;28;20058;-64
2022/07/18 11:54:28;;;;;;;1.73;1.05;;;30.60;26.90;;;;;;5037322;28;20057;-63
2022/07/18 11:56:56;;;;;;;2.35;1.00;;;30.60;26.60;;;;;;5041500;28;20076;-58
2022/07/18 11:59:36;;;;;;;3.15;1.27;;;30.60;26.50;;;;;;5042508;28;20076;-63
2022/07/18 12:02:05;;;;;;;3.08;1.00;;;30.60;26.40;;;;;;5041251;28;20057;-63
2022/07/18 12:04:32;;;;;;;1.92;1.13;;;30.70;26.50;;;;;;5039941;28;20053;-60
2022/07/18 12:07:19;;;;;;;3.50;1.50;;;30.70;26.70;;;;;;5040117;28;20397;-59
2022/07/18 12:09:49;;;;;;;1.98;1.42;;;30.80;27.20;;;;;;5041974;28;20064;-62
2022/07/18 12:12:18;;;;;;;4.90;1.40;;;30.90;26.80;;;;;;5037292;28;20045;-47
2022/07/18 12:14:55;;;;;;;3.70;1.35;;;30.90;26.70;;;;;;5039978;28;20057;-56
2022/07/18 12:17:23;;;;;;;3.33;1.30;;;31.00;26.40;;;;;;5029319;28;20052;-61
2022/07/18 12:19:51;;;;;;;5.95;1.55;;;31.00;26.50;;;;;;5039771;28;20440;-58
2022/07/18 12:22:18;;;;;;;5.40;1.40;;;31.10;26.40;;;;;;5043418;28;20056;-57
2022/07/18 12:24:54;;;;;;;2.85;1.30;;;31.10;26.40;;;;;;5039456;28;20428;-62
2022/07/18 12:27:23;;;;;;;3.20;1.40;;;31.20;26.00;;;;;;5034972;28;20065;-63
2022/07/18 12:30:06;;;;;;;2.85;1.52;;;31.20;26.20;;;;;;5041966;28;20061;-58
2022/07/18 12:32:45;;;;;;;2.28;1.20;;;31.20;25.90;;;;;;5036631;28;20049;-60
2022/07/18 12:35:15;;;;;;;2.45;1.48;;;31.20;26.20;;;;;;5037227;28;20053;-51
2022/07/18 12:37:52;;;;;;;5.75;1.25;;;31.20;26.60;;;;;;5033213;28;20049;-54
2022/07/18 12:40:20;;;;;;;4.80;1.40;;;31.30;26.10;;;;;;5030801;28;20393;-57
2022/07/18 12:42:48;;;;;;;5.10;1.10;;;31.30;26.10;;;;;;5028533;28;20052;-66
2022/07/18 12:45:17;;;;;;;3.15;1.35;;;31.30;26.00;;;;;;5030255;28;20060;-56
2022/07/18 12:47:45;;;;;;;2.05;1.40;;;31.30;26.40;;;;;;5034910;28;20053;-60
2022/07/18 12:50:12;;;;;;;2.17;1.40;;;31.40;26.10;;;;;;5032853;28;20072;-53
2022/07/18 12:52:40;;;;;;;5.13;1.45;;;31.40;26.80;;;;;;5039487;28;20048;-55
2022/07/18 12:55:08;;;;;;;3.80;1.35;;;31.50;26.70;;;;;;5038776;28;20053;-59
2022/07/18 12:57:36;;;;;;;2.25;1.25;;;31.50;26.30;;;;;;5029667;28;20500;-55
2022/07/18 13:00:05;;;;;;;6.57;1.30;;;31.60;26.30;;;;;;5031255;28;20052;-52
2022/07/18 13:02:34;;;;;;;4.75;1.40;;;31.60;26.10;;;;;;5028760;28;20042;-57